sensor_id;sensor_type;location;lat;lon;timestamp;P1;durP1;ratioP1;P2;durP2;ratioP2
140;SDS011;65;48.778;9.160;2023-04-22T00:01:00;7.65;;;4.43;;
140;SDS011;65;48.778;9.160;2023-04-22T00:03:46;9.63;;;4.90;;
140;SDS011;65;48.778;9.160;2023-04-22T00:06:32;9.13;;;5.10;;
140;SDS011;65;48.778;9.160;2023-04-22T00:09:18;9.07;;;5.07;;
140;SDS011;65;48.778;9.160;2023-04-22T00:12:03;9.02;;;5.00;;
140;SDS011;65;48.778;9.160;2023-04-22T00:14:49;7.88;;;4.40;;
140;SDS011;65;48.778;9.160;2023-04-22T00:17:35;11.75;;;5.60;;
140;SDS011;65;48.778;9.160;2023-04-22T00:20:21;8.52;;;5.00;;
140;SDS011;65;48.778;9.160;2023-04-22T00:23:07;9.80;;;5.65;;
140;SDS011;65;48.778;9.160;2023-04-22T00:25:53;9.73;;;5.60;;
140;SDS011;65;48.778;9.160;2023-04-22T00:28:38;9.18;;;5.28;;
140;SDS011;65;48.778;9.160;2023-04-22T00:31:24;9.68;;;5.03;;
140;SDS011;65;48.778;9.160;2023-04-22T00:34:10;8.60;;;5.07;;
140;SDS011;65;48.778;9.160;2023-04-22T00:36:56;8.43;;;5.18;;
140;SDS011;65;48.778;9.160;2023-04-22T00:39:42;10.10;;;5.68;;
140;SDS011;65;48.778;9.160;2023-04-22T00:42:27;11.15;;;5.10;;
140;SDS011;65;48.778;9.160;2023-04-22T00:45:14;10.23;;;5.57;;
140;SDS011;65;48.778;9.160;2023-04-22T00:48:02;9.68;;;5.63;;
140;SDS011;65;48.778;9.160;2023-04-22T00:50:48;12.73;;;5.65;;
140;SDS011;65;48.778;9.160;2023-04-22T00:53:33;10.95;;;6.13;;
140;SDS011;65;48.778;9.160;2023-04-22T00:56:19;9.07;;;5.18;;
140;SDS011;65;48.778;9.160;2023-04-22T00:59:06;11.15;;;6.03;;
140;SDS011;65;48.778;9.160;2023-04-22T01:01:53;9.95;;;5.85;;
140;SDS011;65;48.778;9.160;2023-04-22T01:04:40;10.35;;;6.13;;
140;SDS011;65;48.778;9.160;2023-04-22T01:07:26;9.90;;;5.70;;
140;SDS011;65;48.778;9.160;2023-04-22T01:10:12;9.38;;;5.38;;
140;SDS011;65;48.778;9.160;2023-04-22T01:12:58;11.13;;;6.07;;
140;SDS011;65;48.778;9.160;2023-04-22T01:15:44;8.65;;;5.30;;
140;SDS011;65;48.778;9.160;2023-04-22T01:18:30;8.73;;;5.03;;
140;SDS011;65;48.778;9.160;2023-04-22T01:21:17;9.70;;;5.07;;
140;SDS011;65;48.778;9.160;2023-04-22T01:24:03;9.73;;;5.20;;
140;SDS011;65;48.778;9.160;2023-04-22T01:26:49;9.65;;;5.30;;
140;SDS011;65;48.778;9.160;2023-04-22T01:29:38;9.25;;;5.43;;
140;SDS011;65;48.778;9.160;2023-04-22T01:32:24;9.68;;;5.25;;
140;SDS011;65;48.778;9.160;2023-04-22T01:35:10;12.02;;;5.50;;
140;SDS011;65;48.778;9.160;2023-04-22T01:37:55;8.85;;;5.43;;
140;SDS011;65;48.778;9.160;2023-04-22T01:40:42;8.98;;;4.80;;
140;SDS011;65;48.778;9.160;2023-04-22T01:43:28;8.98;;;5.47;;
140;SDS011;65;48.778;9.160;2023-04-22T01:46:18;9.98;;;5.18;;
140;SDS011;65;48.778;9.160;2023-04-22T01:49:03;11.63;;;5.55;;
140;SDS011;65;48.778;9.160;2023-04-22T01:51:49;9.55;;;5.25;;
140;SDS011;65;48.778;9.160;2023-04-22T01:54:35;7.07;;;4.70;;
140;SDS011;65;48.778;9.160;2023-04-22T01:57:21;8.98;;;5.05;;
140;SDS011;65;48.778;9.160;2023-04-22T02:00:07;9.02;;;5.10;;
140;SDS011;65;48.778;9.160;2023-04-22T02:02:53;10.10;;;5.43;;
140;SDS011;65;48.778;9.160;2023-04-22T02:05:39;8.40;;;5.05;;
140;SDS011;65;48.778;9.160;2023-04-22T02:08:25;8.32;;;4.63;;
140;SDS011;65;48.778;9.160;2023-04-22T02:11:10;9.23;;;5.10;;
140;SDS011;65;48.778;9.160;2023-04-22T02:13:56;7.80;;;5.25;;
140;SDS011;65;48.778;9.160;2023-04-22T02:16:42;9.20;;;5.38;;
140;SDS011;65;48.778;9.160;2023-04-22T02:19:28;11.40;;;5.47;;
140;SDS011;65;48.778;9.160;2023-04-22T02:22:14;10.23;;;5.03;;
140;SDS011;65;48.778;9.160;2023-04-22T02:25:00;10.50;;;5.50;;
140;SDS011;65;48.778;9.160;2023-04-22T02:27:45;9.05;;;5.50;;
140;SDS011;65;48.778;9.160;2023-04-22T02:30:31;8.40;;;5.20;;
140;SDS011;65;48.778;9.160;2023-04-22T02:33:17;8.05;;;4.93;;
140;SDS011;65;48.778;9.160;2023-04-22T02:36:03;8.63;;;5.40;;
140;SDS011;65;48.778;9.160;2023-04-22T02:38:48;8.63;;;4.95;;
140;SDS011;65;48.778;9.160;2023-04-22T02:41:34;9.75;;;5.53;;
140;SDS011;65;48.778;9.160;2023-04-22T02:44:20;8.25;;;5.05;;
140;SDS011;65;48.778;9.160;2023-04-22T02:47:06;9.20;;;5.72;;
140;SDS011;65;48.778;9.160;2023-04-22T02:49:51;8.85;;;5.20;;
140;SDS011;65;48.778;9.160;2023-04-22T02:52:37;11.65;;;5.47;;
140;SDS011;65;48.778;9.160;2023-04-22T02:55:23;9.20;;;5.18;;
140;SDS011;65;48.778;9.160;2023-04-22T02:58:09;7.35;;;4.82;;
140;SDS011;65;48.778;9.160;2023-04-22T03:00:54;11.25;;;5.68;;
140;SDS011;65;48.778;9.160;2023-04-22T03:03:42;9.68;;;5.88;;
140;SDS011;65;48.778;9.160;2023-04-22T03:06:27;8.15;;;5.43;;
140;SDS011;65;48.778;9.160;2023-04-22T03:09:13;8.98;;;5.40;;
140;SDS011;65;48.778;9.160;2023-04-22T03:11:59;9.57;;;5.63;;
140;SDS011;65;48.778;9.160;2023-04-22T03:14:45;9.00;;;5.20;;
140;SDS011;65;48.778;9.160;2023-04-22T03:17:31;7.75;;;5.25;;
140;SDS011;65;48.778;9.160;2023-04-22T03:20:16;8.20;;;5.10;;
140;SDS011;65;48.778;9.160;2023-04-22T03:23:02;9.07;;;5.28;;
140;SDS011;65;48.778;9.160;2023-04-22T03:25:48;8.55;;;4.65;;
140;SDS011;65;48.778;9.160;2023-04-22T03:28:34;7.90;;;4.85;;
140;SDS011;65;48.778;9.160;2023-04-22T03:31:19;7.80;;;5.05;;
140;SDS011;65;48.778;9.160;2023-04-22T03:34:05;9.40;;;5.32;;
140;SDS011;65;48.778;9.160;2023-04-22T03:36:51;7.38;;;4.88;;
140;SDS011;65;48.778;9.160;2023-04-22T03:39:37;7.90;;;5.30;;
140;SDS011;65;48.778;9.160;2023-04-22T03:42:22;11.52;;;6.20;;
140;SDS011;65;48.778;9.160;2023-04-22T03:45:08;8.23;;;5.30;;
140;SDS011;65;48.778;9.160;2023-04-22T03:47:54;9.05;;;5.13;;
140;SDS011;65;48.778;9.160;2023-04-22T03:50:40;9.93;;;5.45;;
140;SDS011;65;48.778;9.160;2023-04-22T03:53:25;10.10;;;5.13;;
140;SDS011;65;48.778;9.160;2023-04-22T03:56:11;12.30;;;5.10;;
140;SDS011;65;48.778;9.160;2023-04-22T03:58:57;9.75;;;5.60;;
140;SDS011;65;48.778;9.160;2023-04-22T04:01:44;9.07;;;5.30;;
140;SDS011;65;48.778;9.160;2023-04-22T04:04:31;9.13;;;5.13;;
140;SDS011;65;48.778;9.160;2023-04-22T04:07:17;9.02;;;5.57;;
140;SDS011;65;48.778;9.160;2023-04-22T04:10:03;11.10;;;5.40;;
140;SDS011;65;48.778;9.160;2023-04-22T04:12:49;12.27;;;6.00;;
140;SDS011;65;48.778;9.160;2023-04-22T04:15:35;8.55;;;5.50;;
140;SDS011;65;48.778;9.160;2023-04-22T04:18:21;9.23;;;5.60;;
140;SDS011;65;48.778;9.160;2023-04-22T04:21:07;9.45;;;5.50;;
140;SDS011;65;48.778;9.160;2023-04-22T04:23:53;8.45;;;5.50;;
140;SDS011;65;48.778;9.160;2023-04-22T04:26:39;11.30;;;6.43;;
140;SDS011;65;48.778;9.160;2023-04-22T04:29:25;8.05;;;5.25;;
140;SDS011;65;48.778;9.160;2023-04-22T04:32:11;8.98;;;6.18;;
140;SDS011;65;48.778;9.160;2023-04-22T04:34:57;9.93;;;7.00;;
140;SDS011;65;48.778;9.160;2023-04-22T04:37:44;12.18;;;7.43;;
140;SDS011;65;48.778;9.160;2023-04-22T04:40:31;12.02;;;7.32;;
140;SDS011;65;48.778;9.160;2023-04-22T04:43:17;11.27;;;6.78;;
140;SDS011;65;48.778;9.160;2023-04-22T04:46:03;10.88;;;7.10;;
140;SDS011;65;48.778;9.160;2023-04-22T04:48:48;13.32;;;7.10;;
140;SDS011;65;48.778;9.160;2023-04-22T04:51:36;8.50;;;5.90;;
140;SDS011;65;48.778;9.160;2023-04-22T04:54:21;11.18;;;7.10;;
140;SDS011;65;48.778;9.160;2023-04-22T04:57:07;9.43;;;7.03;;
140;SDS011;65;48.778;9.160;2023-04-22T04:59:54;9.20;;;6.80;;
140;SDS011;65;48.778;9.160;2023-04-22T05:02:40;10.63;;;7.50;;
140;SDS011;65;48.778;9.160;2023-04-22T05:05:25;9.68;;;6.32;;
140;SDS011;65;48.778;9.160;2023-04-22T05:08:11;9.80;;;6.30;;
140;SDS011;65;48.778;9.160;2023-04-22T05:10:57;11.25;;;7.97;;
140;SDS011;65;48.778;9.160;2023-04-22T05:13:43;9.85;;;6.78;;
140;SDS011;65;48.778;9.160;2023-04-22T05:16:28;12.27;;;7.18;;
140;SDS011;65;48.778;9.160;2023-04-22T05:19:14;11.30;;;6.57;;
140;SDS011;65;48.778;9.160;2023-04-22T05:22:00;10.85;;;7.40;;
140;SDS011;65;48.778;9.160;2023-04-22T05:24:46;12.90;;;6.65;;
140;SDS011;65;48.778;9.160;2023-04-22T05:27:31;8.23;;;5.15;;
140;SDS011;65;48.778;9.160;2023-04-22T05:30:17;9.10;;;5.22;;
140;SDS011;65;48.778;9.160;2023-04-22T05:33:03;8.25;;;5.40;;
140;SDS011;65;48.778;9.160;2023-04-22T05:35:49;6.70;;;4.32;;
140;SDS011;65;48.778;9.160;2023-04-22T05:38:36;9.82;;;5.25;;
140;SDS011;65;48.778;9.160;2023-04-22T05:41:22;7.93;;;4.00;;
140;SDS011;65;48.778;9.160;2023-04-22T05:44:07;9.13;;;5.47;;
140;SDS011;65;48.778;9.160;2023-04-22T05:46:53;7.60;;;4.10;;
140;SDS011;65;48.778;9.160;2023-04-22T05:49:39;7.35;;;4.10;;
140;SDS011;65;48.778;9.160;2023-04-22T05:52:25;8.40;;;3.97;;
140;SDS011;65;48.778;9.160;2023-04-22T05:55:10;7.10;;;3.97;;
140;SDS011;65;48.778;9.160;2023-04-22T05:57:56;11.60;;;3.85;;
140;SDS011;65;48.778;9.160;2023-04-22T06:00:42;6.22;;;3.92;;
140;SDS011;65;48.778;9.160;2023-04-22T06:03:27;6.72;;;3.67;;
140;SDS011;65;48.778;9.160;2023-04-22T06:06:14;6.90;;;4.07;;
140;SDS011;65;48.778;9.160;2023-04-22T06:09:00;7.72;;;4.47;;
140;SDS011;65;48.778;9.160;2023-04-22T06:11:46;7.18;;;4.20;;
140;SDS011;65;48.778;9.160;2023-04-22T06:14:32;7.70;;;3.92;;
140;SDS011;65;48.778;9.160;2023-04-22T06:17:17;7.97;;;3.85;;
140;SDS011;65;48.778;9.160;2023-04-22T06:20:03;6.80;;;3.88;;
140;SDS011;65;48.778;9.160;2023-04-22T06:22:50;7.75;;;4.00;;
140;SDS011;65;48.778;9.160;2023-04-22T06:25:36;7.30;;;3.83;;
140;SDS011;65;48.778;9.160;2023-04-22T06:28:22;6.07;;;4.03;;
140;SDS011;65;48.778;9.160;2023-04-22T06:31:07;6.95;;;4.30;;
140;SDS011;65;48.778;9.160;2023-04-22T06:33:53;6.78;;;4.25;;
140;SDS011;65;48.778;9.160;2023-04-22T06:36:39;6.13;;;3.88;;
140;SDS011;65;48.778;9.160;2023-04-22T06:39:28;8.20;;;4.03;;
140;SDS011;65;48.778;9.160;2023-04-22T06:42:13;7.38;;;3.90;;
140;SDS011;65;48.778;9.160;2023-04-22T06:44:59;7.80;;;4.57;;
140;SDS011;65;48.778;9.160;2023-04-22T06:47:45;9.82;;;4.63;;
140;SDS011;65;48.778;9.160;2023-04-22T06:50:31;7.95;;;4.75;;
140;SDS011;65;48.778;9.160;2023-04-22T06:53:17;6.47;;;4.43;;
140;SDS011;65;48.778;9.160;2023-04-22T06:56:03;9.27;;;4.90;;
140;SDS011;65;48.778;9.160;2023-04-22T06:58:49;7.60;;;4.57;;
140;SDS011;65;48.778;9.160;2023-04-22T07:01:35;6.85;;;4.13;;
140;SDS011;65;48.778;9.160;2023-04-22T07:04:21;7.10;;;4.05;;
140;SDS011;65;48.778;9.160;2023-04-22T07:07:06;7.22;;;4.47;;
140;SDS011;65;48.778;9.160;2023-04-22T07:09:52;7.30;;;4.80;;
140;SDS011;65;48.778;9.160;2023-04-22T07:12:38;9.43;;;5.20;;
140;SDS011;65;48.778;9.160;2023-04-22T07:18:41;10.38;;;6.28;;
140;SDS011;65;48.778;9.160;2023-04-22T07:21:26;9.93;;;6.28;;
140;SDS011;65;48.778;9.160;2023-04-22T07:24:12;12.43;;;7.07;;
140;SDS011;65;48.778;9.160;2023-04-22T07:26:58;7.80;;;6.03;;
140;SDS011;65;48.778;9.160;2023-04-22T07:29:44;10.95;;;6.18;;
140;SDS011;65;48.778;9.160;2023-04-22T07:32:29;10.00;;;5.90;;
140;SDS011;65;48.778;9.160;2023-04-22T07:35:15;11.73;;;5.78;;
140;SDS011;65;48.778;9.160;2023-04-22T07:38:02;9.35;;;5.40;;
140;SDS011;65;48.778;9.160;2023-04-22T07:40:48;8.38;;;6.30;;
140;SDS011;65;48.778;9.160;2023-04-22T07:43:33;10.43;;;5.80;;
140;SDS011;65;48.778;9.160;2023-04-22T07:46:19;10.05;;;5.63;;
140;SDS011;65;48.778;9.160;2023-04-22T07:49:05;10.07;;;5.60;;
140;SDS011;65;48.778;9.160;2023-04-22T07:51:51;9.43;;;4.80;;
140;SDS011;65;48.778;9.160;2023-04-22T07:54:36;8.32;;;4.72;;
140;SDS011;65;48.778;9.160;2023-04-22T07:57:22;7.13;;;4.43;;
140;SDS011;65;48.778;9.160;2023-04-22T08:00:22;9.18;;;4.80;;
140;SDS011;65;48.778;9.160;2023-04-22T08:03:08;7.63;;;4.40;;
140;SDS011;65;48.778;9.160;2023-04-22T08:05:53;7.80;;;3.50;;
140;SDS011;65;48.778;9.160;2023-04-22T08:08:42;6.80;;;3.22;;
140;SDS011;65;48.778;9.160;2023-04-22T08:11:28;5.05;;;2.97;;
140;SDS011;65;48.778;9.160;2023-04-22T08:14:13;4.07;;;2.78;;
140;SDS011;65;48.778;9.160;2023-04-22T08:16:59;6.00;;;3.13;;
140;SDS011;65;48.778;9.160;2023-04-22T08:19:45;5.95;;;2.80;;
140;SDS011;65;48.778;9.160;2023-04-22T08:22:30;8.98;;;3.20;;
140;SDS011;65;48.778;9.160;2023-04-22T08:25:17;4.03;;;2.80;;
140;SDS011;65;48.778;9.160;2023-04-22T08:28:03;5.65;;;2.83;;
140;SDS011;65;48.778;9.160;2023-04-22T08:30:49;4.35;;;2.42;;
140;SDS011;65;48.778;9.160;2023-04-22T08:33:34;4.15;;;2.60;;
140;SDS011;65;48.778;9.160;2023-04-22T08:36:20;5.43;;;2.60;;
140;SDS011;65;48.778;9.160;2023-04-22T08:39:07;4.85;;;2.70;;
140;SDS011;65;48.778;9.160;2023-04-22T08:41:54;5.45;;;2.83;;
140;SDS011;65;48.778;9.160;2023-04-22T08:44:43;4.88;;;2.63;;
140;SDS011;65;48.778;9.160;2023-04-22T08:47:29;5.60;;;2.50;;
140;SDS011;65;48.778;9.160;2023-04-22T08:50:17;4.45;;;2.35;;
140;SDS011;65;48.778;9.160;2023-04-22T08:53:05;6.43;;;2.42;;
140;SDS011;65;48.778;9.160;2023-04-22T08:55:51;5.53;;;2.38;;
140;SDS011;65;48.778;9.160;2023-04-22T08:58:41;5.72;;;2.40;;
140;SDS011;65;48.778;9.160;2023-04-22T09:01:27;3.95;;;2.22;;
140;SDS011;65;48.778;9.160;2023-04-22T09:04:15;4.13;;;2.22;;
140;SDS011;65;48.778;9.160;2023-04-22T09:07:03;6.00;;;2.20;;
140;SDS011;65;48.778;9.160;2023-04-22T09:09:48;4.95;;;2.30;;
140;SDS011;65;48.778;9.160;2023-04-22T09:12:34;4.72;;;2.42;;
140;SDS011;65;48.778;9.160;2023-04-22T09:15:21;3.35;;;1.92;;
140;SDS011;65;48.778;9.160;2023-04-22T09:18:08;3.85;;;2.17;;
140;SDS011;65;48.778;9.160;2023-04-22T09:20:54;4.20;;;2.17;;
140;SDS011;65;48.778;9.160;2023-04-22T09:23:44;5.18;;;2.40;;
140;SDS011;65;48.778;9.160;2023-04-22T09:26:37;3.80;;;2.30;;
140;SDS011;65;48.778;9.160;2023-04-22T09:29:28;6.95;;;2.92;;
140;SDS011;65;48.778;9.160;2023-04-22T09:32:15;4.70;;;2.40;;
140;SDS011;65;48.778;9.160;2023-04-22T09:35:02;3.97;;;2.20;;
140;SDS011;65;48.778;9.160;2023-04-22T09:37:50;6.05;;;2.20;;
140;SDS011;65;48.778;9.160;2023-04-22T09:40:37;2.75;;;2.00;;
140;SDS011;65;48.778;9.160;2023-04-22T09:43:26;2.42;;;1.88;;
140;SDS011;65;48.778;9.160;2023-04-22T09:46:16;5.30;;;1.98;;
140;SDS011;65;48.778;9.160;2023-04-22T09:49:02;3.38;;;1.90;;
140;SDS011;65;48.778;9.160;2023-04-22T09:51:48;3.03;;;1.98;;
140;SDS011;65;48.778;9.160;2023-04-22T09:54:47;3.53;;;1.95;;
140;SDS011;65;48.778;9.160;2023-04-22T09:57:35;2.75;;;1.80;;
140;SDS011;65;48.778;9.160;2023-04-22T10:00:25;3.35;;;1.98;;
140;SDS011;65;48.778;9.160;2023-04-22T10:03:13;5.43;;;2.00;;
140;SDS011;65;48.778;9.160;2023-04-22T10:06:00;7.18;;;2.08;;
140;SDS011;65;48.778;9.160;2023-04-22T10:08:45;3.00;;;1.90;;
140;SDS011;65;48.778;9.160;2023-04-22T10:11:31;3.35;;;2.10;;
140;SDS011;65;48.778;9.160;2023-04-22T10:14:19;2.47;;;1.73;;
140;SDS011;65;48.778;9.160;2023-04-22T10:17:08;4.50;;;1.90;;
140;SDS011;65;48.778;9.160;2023-04-22T10:19:57;4.57;;;1.90;;
140;SDS011;65;48.778;9.160;2023-04-22T10:22:49;2.60;;;1.80;;
140;SDS011;65;48.778;9.160;2023-04-22T10:25:38;4.28;;;2.05;;
140;SDS011;65;48.778;9.160;2023-04-22T10:28:27;3.85;;;1.88;;
140;SDS011;65;48.778;9.160;2023-04-22T10:31:20;3.80;;;2.05;;
140;SDS011;65;48.778;9.160;2023-04-22T10:34:13;3.00;;;1.80;;
140;SDS011;65;48.778;9.160;2023-04-22T10:40:04;2.63;;;1.80;;
140;SDS011;65;48.778;9.160;2023-04-22T10:42:57;2.80;;;1.65;;
140;SDS011;65;48.778;9.160;2023-04-22T10:45:47;3.28;;;1.90;;
140;SDS011;65;48.778;9.160;2023-04-22T10:48:49;4.07;;;1.90;;
140;SDS011;65;48.778;9.160;2023-04-22T10:51:45;2.35;;;1.60;;
140;SDS011;65;48.778;9.160;2023-04-22T10:57:27;3.67;;;1.60;;
140;SDS011;65;48.778;9.160;2023-04-22T11:00:22;3.63;;;1.85;;
140;SDS011;65;48.778;9.160;2023-04-22T11:03:26;4.28;;;1.83;;
140;SDS011;65;48.778;9.160;2023-04-22T11:06:14;6.35;;;1.77;;
140;SDS011;65;48.778;9.160;2023-04-22T11:09:10;5.40;;;1.90;;
140;SDS011;65;48.778;9.160;2023-04-22T11:15:24;5.53;;;1.83;;
140;SDS011;65;48.778;9.160;2023-04-22T11:18:13;2.50;;;1.58;;
140;SDS011;65;48.778;9.160;2023-04-22T11:21:02;3.95;;;1.77;;
140;SDS011;65;48.778;9.160;2023-04-22T11:23:51;3.38;;;2.05;;
140;SDS011;65;48.778;9.160;2023-04-22T11:26:37;3.70;;;1.90;;
140;SDS011;65;48.778;9.160;2023-04-22T11:29:23;4.82;;;2.00;;
140;SDS011;65;48.778;9.160;2023-04-22T11:32:09;3.10;;;1.77;;
140;SDS011;65;48.778;9.160;2023-04-22T11:34:56;3.95;;;2.10;;
140;SDS011;65;48.778;9.160;2023-04-22T11:37:43;7.78;;;2.13;;
140;SDS011;65;48.778;9.160;2023-04-22T11:40:32;3.90;;;1.80;;
140;SDS011;65;48.778;9.160;2023-04-22T11:43:25;5.65;;;1.88;;
140;SDS011;65;48.778;9.160;2023-04-22T11:46:11;3.55;;;2.00;;
140;SDS011;65;48.778;9.160;2023-04-22T11:49:10;5.40;;;1.85;;
140;SDS011;65;48.778;9.160;2023-04-22T11:51:59;4.93;;;1.70;;
140;SDS011;65;48.778;9.160;2023-04-22T11:54:46;3.95;;;1.73;;
140;SDS011;65;48.778;9.160;2023-04-22T11:57:34;4.40;;;2.00;;
140;SDS011;65;48.778;9.160;2023-04-22T12:00:21;3.45;;;1.80;;
140;SDS011;65;48.778;9.160;2023-04-22T12:06:01;5.18;;;1.77;;
140;SDS011;65;48.778;9.160;2023-04-22T12:08:49;5.55;;;2.25;;
140;SDS011;65;48.778;9.160;2023-04-22T12:11:34;4.90;;;2.15;;
140;SDS011;65;48.778;9.160;2023-04-22T12:14:20;4.45;;;1.95;;
140;SDS011;65;48.778;9.160;2023-04-22T12:17:15;4.25;;;1.58;;
140;SDS011;65;48.778;9.160;2023-04-22T12:20:04;5.00;;;1.98;;
140;SDS011;65;48.778;9.160;2023-04-22T12:22:51;7.47;;;2.40;;
140;SDS011;65;48.778;9.160;2023-04-22T12:25:37;5.32;;;2.17;;
140;SDS011;65;48.778;9.160;2023-04-22T12:28:23;4.05;;;1.83;;
140;SDS011;65;48.778;9.160;2023-04-22T12:31:09;5.15;;;2.20;;
140;SDS011;65;48.778;9.160;2023-04-22T12:33:55;4.13;;;2.20;;
140;SDS011;65;48.778;9.160;2023-04-22T12:36:41;3.22;;;1.90;;
140;SDS011;65;48.778;9.160;2023-04-22T12:39:26;4.30;;;1.80;;
140;SDS011;65;48.778;9.160;2023-04-22T12:42:12;5.43;;;1.92;;
140;SDS011;65;48.778;9.160;2023-04-22T12:44:58;3.25;;;1.90;;
140;SDS011;65;48.778;9.160;2023-04-22T12:47:43;3.60;;;1.80;;
140;SDS011;65;48.778;9.160;2023-04-22T12:50:30;4.95;;;2.00;;
140;SDS011;65;48.778;9.160;2023-04-22T12:53:16;6.13;;;2.00;;
140;SDS011;65;48.778;9.160;2023-04-22T12:56:02;5.43;;;2.60;;
140;SDS011;65;48.778;9.160;2023-04-22T12:58:48;6.18;;;1.80;;
140;SDS011;65;48.778;9.160;2023-04-22T13:01:34;5.15;;;1.90;;
140;SDS011;65;48.778;9.160;2023-04-22T13:04:19;4.10;;;1.88;;
140;SDS011;65;48.778;9.160;2023-04-22T13:07:05;6.13;;;2.08;;
140;SDS011;65;48.778;9.160;2023-04-22T13:09:51;3.95;;;1.90;;
140;SDS011;65;48.778;9.160;2023-04-22T13:12:37;6.53;;;2.35;;
140;SDS011;65;48.778;9.160;2023-04-22T13:15:23;3.70;;;1.92;;
140;SDS011;65;48.778;9.160;2023-04-22T13:18:10;4.18;;;1.88;;
140;SDS011;65;48.778;9.160;2023-04-22T13:20:56;4.15;;;1.80;;
140;SDS011;65;48.778;9.160;2023-04-22T13:23:42;5.50;;;1.80;;
140;SDS011;65;48.778;9.160;2023-04-22T13:26:28;4.60;;;1.98;;
140;SDS011;65;48.778;9.160;2023-04-22T13:29:14;4.72;;;1.80;;
140;SDS011;65;48.778;9.160;2023-04-22T13:32:00;5.03;;;2.10;;
140;SDS011;65;48.778;9.160;2023-04-22T13:34:47;6.22;;;2.10;;
140;SDS011;65;48.778;9.160;2023-04-22T13:37:33;3.67;;;1.88;;
140;SDS011;65;48.778;9.160;2023-04-22T13:40:19;7.82;;;2.20;;
140;SDS011;65;48.778;9.160;2023-04-22T13:43:07;5.32;;;1.95;;
140;SDS011;65;48.778;9.160;2023-04-22T13:45:53;6.97;;;2.00;;
140;SDS011;65;48.778;9.160;2023-04-22T13:48:38;6.68;;;2.10;;
140;SDS011;65;48.778;9.160;2023-04-22T13:51:24;4.10;;;1.98;;
140;SDS011;65;48.778;9.160;2023-04-22T13:54:10;4.85;;;2.10;;
140;SDS011;65;48.778;9.160;2023-04-22T13:56:56;3.72;;;1.92;;
140;SDS011;65;48.778;9.160;2023-04-22T13:59:41;5.55;;;2.25;;
140;SDS011;65;48.778;9.160;2023-04-22T14:02:27;3.97;;;1.98;;
140;SDS011;65;48.778;9.160;2023-04-22T14:05:13;4.03;;;2.10;;
140;SDS011;65;48.778;9.160;2023-04-22T14:07:58;3.45;;;1.95;;
140;SDS011;65;48.778;9.160;2023-04-22T14:10:45;8.18;;;2.03;;
140;SDS011;65;48.778;9.160;2023-04-22T14:13:31;8.02;;;2.20;;
140;SDS011;65;48.778;9.160;2023-04-22T14:16:17;5.85;;;1.88;;
140;SDS011;65;48.778;9.160;2023-04-22T14:22:46;5.40;;;2.10;;
140;SDS011;65;48.778;9.160;2023-04-22T14:25:31;5.60;;;2.00;;
140;SDS011;65;48.778;9.160;2023-04-22T14:28:17;2.72;;;1.88;;
140;SDS011;65;48.778;9.160;2023-04-22T14:31:06;5.65;;;2.22;;
140;SDS011;65;48.778;9.160;2023-04-22T14:33:52;4.90;;;1.95;;
140;SDS011;65;48.778;9.160;2023-04-22T14:36:38;4.20;;;1.80;;
140;SDS011;65;48.778;9.160;2023-04-22T14:39:24;3.75;;;1.77;;
140;SDS011;65;48.778;9.160;2023-04-22T14:42:10;4.25;;;2.20;;
140;SDS011;65;48.778;9.160;2023-04-22T14:44:56;4.38;;;1.92;;
140;SDS011;65;48.778;9.160;2023-04-22T14:47:41;3.55;;;1.90;;
140;SDS011;65;48.778;9.160;2023-04-22T14:50:27;9.20;;;2.50;;
140;SDS011;65;48.778;9.160;2023-04-22T14:53:13;5.32;;;2.00;;
140;SDS011;65;48.778;9.160;2023-04-22T14:55:59;8.75;;;3.88;;
140;SDS011;65;48.778;9.160;2023-04-22T14:58:44;4.10;;;2.00;;
140;SDS011;65;48.778;9.160;2023-04-22T15:01:31;7.75;;;2.42;;
140;SDS011;65;48.778;9.160;2023-04-22T15:04:16;4.22;;;2.10;;
140;SDS011;65;48.778;9.160;2023-04-22T15:07:03;5.05;;;1.90;;
140;SDS011;65;48.778;9.160;2023-04-22T15:09:49;7.28;;;2.05;;
140;SDS011;65;48.778;9.160;2023-04-22T15:12:34;6.68;;;2.17;;
140;SDS011;65;48.778;9.160;2023-04-22T15:15:20;6.20;;;2.50;;
140;SDS011;65;48.778;9.160;2023-04-22T15:18:06;4.47;;;2.00;;
140;SDS011;65;48.778;9.160;2023-04-22T15:20:52;4.57;;;2.20;;
140;SDS011;65;48.778;9.160;2023-04-22T15:23:38;5.97;;;1.90;;
140;SDS011;65;48.778;9.160;2023-04-22T15:26:23;6.32;;;2.30;;
140;SDS011;65;48.778;9.160;2023-04-22T15:29:09;5.93;;;2.13;;
140;SDS011;65;48.778;9.160;2023-04-22T15:31:55;5.45;;;2.20;;
140;SDS011;65;48.778;9.160;2023-04-22T15:34:41;4.70;;;2.33;;
140;SDS011;65;48.778;9.160;2023-04-22T15:37:26;3.63;;;1.98;;
140;SDS011;65;48.778;9.160;2023-04-22T15:40:12;4.40;;;2.00;;
140;SDS011;65;48.778;9.160;2023-04-22T15:42:58;5.32;;;2.20;;
140;SDS011;65;48.778;9.160;2023-04-22T15:45:44;4.05;;;1.90;;
140;SDS011;65;48.778;9.160;2023-04-22T15:48:30;6.07;;;2.50;;
140;SDS011;65;48.778;9.160;2023-04-22T15:51:17;7.25;;;2.13;;
140;SDS011;65;48.778;9.160;2023-04-22T15:54:03;4.47;;;2.22;;
140;SDS011;65;48.778;9.160;2023-04-22T15:56:49;4.10;;;2.10;;
140;SDS011;65;48.778;9.160;2023-04-22T15:59:36;6.30;;;2.08;;
140;SDS011;65;48.778;9.160;2023-04-22T16:02:22;5.68;;;2.35;;
140;SDS011;65;48.778;9.160;2023-04-22T16:05:08;6.03;;;2.40;;
140;SDS011;65;48.778;9.160;2023-04-22T16:07:54;4.72;;;2.30;;
140;SDS011;65;48.778;9.160;2023-04-22T16:10:40;3.72;;;2.00;;
140;SDS011;65;48.778;9.160;2023-04-22T16:13:27;4.43;;;2.17;;
140;SDS011;65;48.778;9.160;2023-04-22T16:16:13;5.75;;;2.50;;
140;SDS011;65;48.778;9.160;2023-04-22T16:18:58;6.22;;;2.40;;
140;SDS011;65;48.778;9.160;2023-04-22T16:21:44;4.32;;;2.10;;
140;SDS011;65;48.778;9.160;2023-04-22T16:24:30;6.80;;;2.13;;
140;SDS011;65;48.778;9.160;2023-04-22T16:27:16;4.63;;;2.10;;
140;SDS011;65;48.778;9.160;2023-04-22T16:30:03;5.30;;;2.70;;
140;SDS011;65;48.778;9.160;2023-04-22T16:32:49;8.07;;;2.88;;
140;SDS011;65;48.778;9.160;2023-04-22T16:35:35;6.15;;;3.67;;
140;SDS011;65;48.778;9.160;2023-04-22T16:38:21;4.95;;;2.50;;
140;SDS011;65;48.778;9.160;2023-04-22T16:41:07;3.55;;;2.10;;
140;SDS011;65;48.778;9.160;2023-04-22T16:43:56;4.38;;;2.60;;
140;SDS011;65;48.778;9.160;2023-04-22T16:46:41;7.15;;;2.17;;
140;SDS011;65;48.778;9.160;2023-04-22T16:49:27;4.78;;;2.40;;
140;SDS011;65;48.778;9.160;2023-04-22T16:52:13;5.07;;;2.70;;
140;SDS011;65;48.778;9.160;2023-04-22T16:54:59;5.72;;;2.60;;
140;SDS011;65;48.778;9.160;2023-04-22T16:57:44;6.07;;;2.20;;
140;SDS011;65;48.778;9.160;2023-04-22T17:00:31;4.22;;;1.92;;
140;SDS011;65;48.778;9.160;2023-04-22T17:03:17;4.75;;;2.25;;
140;SDS011;65;48.778;9.160;2023-04-22T17:06:03;5.78;;;2.40;;
140;SDS011;65;48.778;9.160;2023-04-22T17:08:49;5.90;;;2.30;;
140;SDS011;65;48.778;9.160;2023-04-22T17:11:36;4.57;;;2.03;;
140;SDS011;65;48.778;9.160;2023-04-22T17:14:23;4.07;;;2.35;;
140;SDS011;65;48.778;9.160;2023-04-22T17:17:09;3.90;;;2.20;;
140;SDS011;65;48.778;9.160;2023-04-22T17:19:54;6.88;;;2.35;;
140;SDS011;65;48.778;9.160;2023-04-22T17:22:40;4.22;;;1.92;;
140;SDS011;65;48.778;9.160;2023-04-22T17:25:26;4.50;;;2.42;;
140;SDS011;65;48.778;9.160;2023-04-22T17:28:12;6.22;;;3.08;;
140;SDS011;65;48.778;9.160;2023-04-22T17:30:58;4.95;;;2.17;;
140;SDS011;65;48.778;9.160;2023-04-22T17:33:43;3.80;;;2.10;;
140;SDS011;65;48.778;9.160;2023-04-22T17:36:29;7.50;;;4.18;;
140;SDS011;65;48.778;9.160;2023-04-22T17:39:16;4.95;;;2.63;;
140;SDS011;65;48.778;9.160;2023-04-22T17:42:01;5.40;;;2.50;;
140;SDS011;65;48.778;9.160;2023-04-22T17:44:47;6.45;;;2.50;;
140;SDS011;65;48.778;9.160;2023-04-22T17:47:34;4.47;;;2.25;;
140;SDS011;65;48.778;9.160;2023-04-22T17:50:19;7.03;;;2.30;;
140;SDS011;65;48.778;9.160;2023-04-22T17:53:07;5.85;;;3.00;;
140;SDS011;65;48.778;9.160;2023-04-22T17:55:53;7.28;;;3.00;;
140;SDS011;65;48.778;9.160;2023-04-22T17:58:38;4.55;;;2.42;;
140;SDS011;65;48.778;9.160;2023-04-22T18:01:24;5.38;;;2.72;;
140;SDS011;65;48.778;9.160;2023-04-22T18:04:13;6.63;;;2.70;;
140;SDS011;65;48.778;9.160;2023-04-22T18:06:59;5.88;;;2.85;;
140;SDS011;65;48.778;9.160;2023-04-22T18:09:44;6.18;;;3.05;;
140;SDS011;65;48.778;9.160;2023-04-22T18:12:30;6.28;;;2.35;;
140;SDS011;65;48.778;9.160;2023-04-22T18:15:16;6.13;;;2.83;;
140;SDS011;65;48.778;9.160;2023-04-22T18:18:04;4.45;;;2.50;;
140;SDS011;65;48.778;9.160;2023-04-22T18:20:50;5.88;;;2.42;;
140;SDS011;65;48.778;9.160;2023-04-22T18:23:35;4.88;;;2.33;;